< < Back
Terminal Aerodrome Forecast


Current Version              Previous Versions:   1  2  3  4  5  6  7  8  9  

Terminal Aerodrome Forecast

663
FTUS42 KFFC 281122
TAFATL
TAF
KATL 281122Z 2812/2918 33008KT P6SM SKC
     FM281500 35006KT P6SM SKC
     FM282000 14004KT P6SM SKC
     FM291500 17006KT P6SM SCT250=

Latest METAR

265
SAUS70 KWBC 281600
MTRATL
METAR KATL 281552Z 33007KT 10SM CLR 06/M05 A3028 RMK AO2 SLP260
T00561050


USA.gov is the U.S. government's official web portal to all federal, state and local government web resources and services.